sensor_id;sensor_type;location;lat;lon;timestamp;P1;durP1;ratioP1;P2;durP2;ratioP2
19384;SDS011;9828;54.122;17.974;2023-03-23T00:04:11;20.37;;;11.97;;
19384;SDS011;9828;54.122;17.974;2023-03-23T00:09:32;21.40;;;13.13;;
19384;SDS011;9828;54.122;17.974;2023-03-23T00:14:54;18.13;;;12.50;;
19384;SDS011;9828;54.122;17.974;2023-03-23T00:20:14;19.40;;;12.90;;
19384;SDS011;9828;54.122;17.974;2023-03-23T00:25:34;18.47;;;13.17;;
19384;SDS011;9828;54.122;17.974;2023-03-23T00:31:02;19.63;;;13.77;;
19384;SDS011;9828;54.122;17.974;2023-03-23T00:36:27;20.47;;;12.83;;
19384;SDS011;9828;54.122;17.974;2023-03-23T00:41:47;23.57;;;13.73;;
19384;SDS011;9828;54.122;17.974;2023-03-23T00:47:08;41.37;;;21.50;;
19384;SDS011;9828;54.122;17.974;2023-03-23T00:52:30;25.23;;;13.77;;
19384;SDS011;9828;54.122;17.974;2023-03-23T00:57:50;21.60;;;12.43;;
19384;SDS011;9828;54.122;17.974;2023-03-23T01:03:10;17.67;;;11.10;;
19384;SDS011;9828;54.122;17.974;2023-03-23T01:08:39;15.50;;;10.10;;
19384;SDS011;9828;54.122;17.974;2023-03-23T01:14:04;16.80;;;10.27;;
19384;SDS011;9828;54.122;17.974;2023-03-23T01:19:24;15.97;;;10.43;;
19384;SDS011;9828;54.122;17.974;2023-03-23T01:24:45;18.93;;;11.43;;
19384;SDS011;9828;54.122;17.974;2023-03-23T01:30:05;18.00;;;10.90;;
19384;SDS011;9828;54.122;17.974;2023-03-23T01:35:27;14.53;;;9.70;;
19384;SDS011;9828;54.122;17.974;2023-03-23T01:40:47;14.27;;;9.13;;
19384;SDS011;9828;54.122;17.974;2023-03-23T01:46:07;15.27;;;9.33;;
19384;SDS011;9828;54.122;17.974;2023-03-23T01:51:27;13.77;;;9.77;;
19384;SDS011;9828;54.122;17.974;2023-03-23T01:56:48;12.47;;;8.93;;
19384;SDS011;9828;54.122;17.974;2023-03-23T02:02:12;11.27;;;8.40;;
19384;SDS011;9828;54.122;17.974;2023-03-23T02:07:34;11.00;;;7.70;;
19384;SDS011;9828;54.122;17.974;2023-03-23T02:12:57;11.53;;;8.00;;
19384;SDS011;9828;54.122;17.974;2023-03-23T02:18:30;15.43;;;8.27;;
19384;SDS011;9828;54.122;17.974;2023-03-23T02:24:02;13.60;;;8.17;;
19384;SDS011;9828;54.122;17.974;2023-03-23T02:40:50;11.40;;;7.30;;
19384;SDS011;9828;54.122;17.974;2023-03-23T02:46:12;9.77;;;7.37;;
19384;SDS011;9828;54.122;17.974;2023-03-23T02:51:34;14.13;;;7.10;;
19384;SDS011;9828;54.122;17.974;2023-03-23T02:56:56;9.63;;;6.90;;
19384;SDS011;9828;54.122;17.974;2023-03-23T03:02:27;10.37;;;6.20;;
19384;SDS011;9828;54.122;17.974;2023-03-23T03:08:50;10.90;;;7.07;;
19384;SDS011;9828;54.122;17.974;2023-03-23T03:13:44;13.63;;;8.00;;
19384;SDS011;9828;54.122;17.974;2023-03-23T03:19:12;12.23;;;7.97;;
19384;SDS011;9828;54.122;17.974;2023-03-23T03:24:38;13.07;;;7.77;;
19384;SDS011;9828;54.122;17.974;2023-03-23T03:30:01;14.63;;;7.87;;
19384;SDS011;9828;54.122;17.974;2023-03-23T03:35:23;14.77;;;8.90;;
19384;SDS011;9828;54.122;17.974;2023-03-23T03:40:44;11.97;;;7.43;;
19384;SDS011;9828;54.122;17.974;2023-03-23T03:46:04;12.33;;;7.73;;
19384;SDS011;9828;54.122;17.974;2023-03-23T03:51:25;14.20;;;8.20;;
19384;SDS011;9828;54.122;17.974;2023-03-23T03:56:47;11.77;;;8.17;;
19384;SDS011;9828;54.122;17.974;2023-03-23T04:02:33;11.80;;;7.13;;
19384;SDS011;9828;54.122;17.974;2023-03-23T04:07:53;13.20;;;8.67;;
19384;SDS011;9828;54.122;17.974;2023-03-23T04:13:13;11.83;;;7.17;;
19384;SDS011;9828;54.122;17.974;2023-03-23T04:18:56;15.80;;;9.93;;
19384;SDS011;9828;54.122;17.974;2023-03-23T04:24:19;10.90;;;7.87;;
19384;SDS011;9828;54.122;17.974;2023-03-23T04:29:41;17.53;;;8.47;;
19384;SDS011;9828;54.122;17.974;2023-03-23T04:35:05;13.97;;;8.37;;
19384;SDS011;9828;54.122;17.974;2023-03-23T04:40:35;13.23;;;8.97;;
19384;SDS011;9828;54.122;17.974;2023-03-23T04:46:07;13.03;;;7.63;;
19384;SDS011;9828;54.122;17.974;2023-03-23T04:51:29;12.40;;;8.13;;
19384;SDS011;9828;54.122;17.974;2023-03-23T04:57:02;12.47;;;8.20;;
19384;SDS011;9828;54.122;17.974;2023-03-23T05:02:24;8.80;;;7.13;;
19384;SDS011;9828;54.122;17.974;2023-03-23T05:07:50;10.57;;;7.57;;
19384;SDS011;9828;54.122;17.974;2023-03-23T05:13:14;17.07;;;10.20;;
19384;SDS011;9828;54.122;17.974;2023-03-23T05:18:39;13.30;;;9.03;;
19384;SDS011;9828;54.122;17.974;2023-03-23T05:24:03;22.33;;;14.27;;
19384;SDS011;9828;54.122;17.974;2023-03-23T05:29:23;27.73;;;13.83;;
19384;SDS011;9828;54.122;17.974;2023-03-23T05:34:50;16.37;;;9.77;;
19384;SDS011;9828;54.122;17.974;2023-03-23T05:40:10;13.20;;;8.30;;
19384;SDS011;9828;54.122;17.974;2023-03-23T05:45:35;22.43;;;12.90;;
19384;SDS011;9828;54.122;17.974;2023-03-23T05:50:56;19.50;;;12.20;;
19384;SDS011;9828;54.122;17.974;2023-03-23T05:56:17;14.93;;;9.40;;
19384;SDS011;9828;54.122;17.974;2023-03-23T06:01:59;19.37;;;11.17;;
19384;SDS011;9828;54.122;17.974;2023-03-23T06:07:19;25.53;;;16.23;;
19384;SDS011;9828;54.122;17.974;2023-03-23T06:12:48;18.23;;;13.50;;
19384;SDS011;9828;54.122;17.974;2023-03-23T06:18:10;18.13;;;11.10;;
19384;SDS011;9828;54.122;17.974;2023-03-23T06:23:52;15.67;;;9.83;;
19384;SDS011;9828;54.122;17.974;2023-03-23T06:29:15;16.03;;;8.80;;
19384;SDS011;9828;54.122;17.974;2023-03-23T06:34:40;19.17;;;11.70;;
19384;SDS011;9828;54.122;17.974;2023-03-23T06:40:22;15.73;;;10.27;;
19384;SDS011;9828;54.122;17.974;2023-03-23T06:45:50;12.63;;;7.93;;
19384;SDS011;9828;54.122;17.974;2023-03-23T06:51:40;9.63;;;6.60;;
19384;SDS011;9828;54.122;17.974;2023-03-23T06:57:00;16.03;;;9.90;;
19384;SDS011;9828;54.122;17.974;2023-03-23T07:02:21;10.83;;;8.10;;
19384;SDS011;9828;54.122;17.974;2023-03-23T07:07:44;10.10;;;5.57;;
19384;SDS011;9828;54.122;17.974;2023-03-23T07:13:17;10.50;;;6.23;;
19384;SDS011;9828;54.122;17.974;2023-03-23T07:18:43;8.43;;;5.60;;
19384;SDS011;9828;54.122;17.974;2023-03-23T07:24:03;12.60;;;6.97;;
19384;SDS011;9828;54.122;17.974;2023-03-23T07:29:49;10.90;;;6.00;;
19384;SDS011;9828;54.122;17.974;2023-03-23T07:35:16;10.13;;;5.43;;
19384;SDS011;9828;54.122;17.974;2023-03-23T07:40:45;8.70;;;6.20;;
19384;SDS011;9828;54.122;17.974;2023-03-23T07:46:09;12.70;;;7.30;;
19384;SDS011;9828;54.122;17.974;2023-03-23T07:51:38;14.87;;;8.30;;
19384;SDS011;9828;54.122;17.974;2023-03-23T07:57:00;11.97;;;7.23;;
19384;SDS011;9828;54.122;17.974;2023-03-23T08:02:25;11.73;;;5.67;;
19384;SDS011;9828;54.122;17.974;2023-03-23T08:08:17;12.37;;;6.67;;
19384;SDS011;9828;54.122;17.974;2023-03-23T08:14:13;6.70;;;4.93;;
19384;SDS011;9828;54.122;17.974;2023-03-23T08:20:00;15.67;;;7.83;;
19384;SDS011;9828;54.122;17.974;2023-03-23T08:25:57;17.47;;;10.63;;
19384;SDS011;9828;54.122;17.974;2023-03-23T08:31:43;9.30;;;6.33;;
19384;SDS011;9828;54.122;17.974;2023-03-23T08:37:27;8.50;;;4.73;;
19384;SDS011;9828;54.122;17.974;2023-03-23T08:43:16;11.30;;;5.80;;
19384;SDS011;9828;54.122;17.974;2023-03-23T08:48:59;10.20;;;4.77;;
19384;SDS011;9828;54.122;17.974;2023-03-23T08:54:38;10.00;;;5.73;;
19384;SDS011;9828;54.122;17.974;2023-03-23T09:00:18;10.30;;;8.00;;
19384;SDS011;9828;54.122;17.974;2023-03-23T09:05:59;10.60;;;5.70;;
19384;SDS011;9828;54.122;17.974;2023-03-23T09:11:30;17.70;;;11.43;;
19384;SDS011;9828;54.122;17.974;2023-03-23T09:16:50;18.50;;;10.57;;
19384;SDS011;9828;54.122;17.974;2023-03-23T09:22:10;13.40;;;7.10;;
19384;SDS011;9828;54.122;17.974;2023-03-23T09:27:30;12.07;;;6.87;;
19384;SDS011;9828;54.122;17.974;2023-03-23T09:32:49;12.50;;;6.57;;
19384;SDS011;9828;54.122;17.974;2023-03-23T09:38:10;12.77;;;6.67;;
19384;SDS011;9828;54.122;17.974;2023-03-23T09:48:59;18.00;;;7.83;;
19384;SDS011;9828;54.122;17.974;2023-03-23T09:54:27;13.60;;;6.67;;
19384;SDS011;9828;54.122;17.974;2023-03-23T10:00:02;11.37;;;6.50;;
19384;SDS011;9828;54.122;17.974;2023-03-23T10:05:33;13.63;;;8.47;;
19384;SDS011;9828;54.122;17.974;2023-03-23T10:11:02;16.40;;;5.90;;
19384;SDS011;9828;54.122;17.974;2023-03-23T10:16:37;7.80;;;5.03;;
19384;SDS011;9828;54.122;17.974;2023-03-23T10:22:11;9.90;;;5.30;;
19384;SDS011;9828;54.122;17.974;2023-03-23T10:33:08;7.10;;;5.30;;
19384;SDS011;9828;54.122;17.974;2023-03-23T10:38:36;6.23;;;4.67;;
19384;SDS011;9828;54.122;17.974;2023-03-23T10:43:59;4.60;;;3.80;;
19384;SDS011;9828;54.122;17.974;2023-03-23T10:49:22;5.07;;;3.53;;
19384;SDS011;9828;54.122;17.974;2023-03-23T10:55:18;8.60;;;4.20;;
19384;SDS011;9828;54.122;17.974;2023-03-23T11:00:40;6.47;;;3.90;;
19384;SDS011;9828;54.122;17.974;2023-03-23T11:06:05;6.90;;;3.90;;
19384;SDS011;9828;54.122;17.974;2023-03-23T11:16:50;4.87;;;3.40;;
19384;SDS011;9828;54.122;17.974;2023-03-23T11:22:15;3.93;;;3.40;;
19384;SDS011;9828;54.122;17.974;2023-03-23T11:27:43;7.03;;;4.60;;
19384;SDS011;9828;54.122;17.974;2023-03-23T11:33:14;8.53;;;5.47;;
19384;SDS011;9828;54.122;17.974;2023-03-23T11:38:34;6.23;;;4.50;;
19384;SDS011;9828;54.122;17.974;2023-03-23T11:43:55;7.97;;;4.00;;
19384;SDS011;9828;54.122;17.974;2023-03-23T12:00:41;12.47;;;7.37;;
19384;SDS011;9828;54.122;17.974;2023-03-23T12:06:25;9.73;;;6.20;;
19384;SDS011;9828;54.122;17.974;2023-03-23T12:17:40;34.27;;;18.03;;
19384;SDS011;9828;54.122;17.974;2023-03-23T12:29:05;61.77;;;29.60;;
19384;SDS011;9828;54.122;17.974;2023-03-23T12:34:33;33.93;;;16.27;;
19384;SDS011;9828;54.122;17.974;2023-03-23T12:45:42;21.93;;;11.17;;
19384;SDS011;9828;54.122;17.974;2023-03-23T13:02:29;7.90;;;4.50;;
19384;SDS011;9828;54.122;17.974;2023-03-23T13:07:53;5.30;;;2.97;;
19384;SDS011;9828;54.122;17.974;2023-03-23T13:13:51;7.57;;;4.10;;
19384;SDS011;9828;54.122;17.974;2023-03-23T13:44:53;6.00;;;3.73;;
19384;SDS011;9828;54.122;17.974;2023-03-23T13:55:39;4.80;;;2.70;;
19384;SDS011;9828;54.122;17.974;2023-03-23T14:01:09;35.83;;;18.77;;
19384;SDS011;9828;54.122;17.974;2023-03-23T14:06:38;6.73;;;4.20;;
19384;SDS011;9828;54.122;17.974;2023-03-23T14:12:04;15.87;;;8.90;;
19384;SDS011;9828;54.122;17.974;2023-03-23T14:17:39;17.30;;;8.57;;
19384;SDS011;9828;54.122;17.974;2023-03-23T14:23:02;6.60;;;3.53;;
19384;SDS011;9828;54.122;17.974;2023-03-23T14:28:22;6.70;;;4.20;;
19384;SDS011;9828;54.122;17.974;2023-03-23T14:33:42;20.87;;;7.97;;
19384;SDS011;9828;54.122;17.974;2023-03-23T14:39:46;8.63;;;3.70;;
19384;SDS011;9828;54.122;17.974;2023-03-23T14:44:48;4.57;;;3.37;;
19384;SDS011;9828;54.122;17.974;2023-03-23T14:55:48;12.43;;;5.77;;
19384;SDS011;9828;54.122;17.974;2023-03-23T15:01:10;17.83;;;10.80;;
19384;SDS011;9828;54.122;17.974;2023-03-23T15:06:39;10.37;;;5.77;;
19384;SDS011;9828;54.122;17.974;2023-03-23T15:12:05;6.33;;;4.03;;
19384;SDS011;9828;54.122;17.974;2023-03-23T15:17:26;8.63;;;3.90;;
19384;SDS011;9828;54.122;17.974;2023-03-23T15:22:52;6.10;;;3.60;;
19384;SDS011;9828;54.122;17.974;2023-03-23T15:28:17;6.10;;;3.17;;
19384;SDS011;9828;54.122;17.974;2023-03-23T15:33:54;5.40;;;3.17;;
19384;SDS011;9828;54.122;17.974;2023-03-23T15:39:18;7.47;;;3.50;;
19384;SDS011;9828;54.122;17.974;2023-03-23T15:44:38;7.37;;;4.20;;
19384;SDS011;9828;54.122;17.974;2023-03-23T15:49:58;7.70;;;4.80;;
19384;SDS011;9828;54.122;17.974;2023-03-23T15:55:36;4.87;;;3.40;;
19384;SDS011;9828;54.122;17.974;2023-03-23T16:00:57;9.67;;;6.33;;
19384;SDS011;9828;54.122;17.974;2023-03-23T16:06:33;12.23;;;6.40;;
19384;SDS011;9828;54.122;17.974;2023-03-23T16:11:55;16.77;;;6.77;;
19384;SDS011;9828;54.122;17.974;2023-03-23T16:17:17;17.03;;;8.20;;
19384;SDS011;9828;54.122;17.974;2023-03-23T16:22:39;13.83;;;5.67;;
19384;SDS011;9828;54.122;17.974;2023-03-23T16:28:01;23.10;;;9.80;;
19384;SDS011;9828;54.122;17.974;2023-03-23T16:33:22;17.13;;;6.60;;
19384;SDS011;9828;54.122;17.974;2023-03-23T16:38:43;26.67;;;9.80;;
19384;SDS011;9828;54.122;17.974;2023-03-23T16:44:04;14.90;;;7.20;;
19384;SDS011;9828;54.122;17.974;2023-03-23T16:49:26;7.57;;;4.13;;
19384;SDS011;9828;54.122;17.974;2023-03-23T16:54:47;12.57;;;6.07;;
19384;SDS011;9828;54.122;17.974;2023-03-23T17:00:09;12.17;;;6.50;;
19384;SDS011;9828;54.122;17.974;2023-03-23T17:05:34;11.00;;;5.33;;
19384;SDS011;9828;54.122;17.974;2023-03-23T17:10:57;7.30;;;4.10;;
19384;SDS011;9828;54.122;17.974;2023-03-23T17:16:18;9.80;;;5.37;;
19384;SDS011;9828;54.122;17.974;2023-03-23T17:21:39;14.80;;;7.73;;
19384;SDS011;9828;54.122;17.974;2023-03-23T17:27:00;11.30;;;5.63;;
19384;SDS011;9828;54.122;17.974;2023-03-23T17:32:21;13.53;;;6.17;;
19384;SDS011;9828;54.122;17.974;2023-03-23T17:37:44;15.13;;;6.93;;
19384;SDS011;9828;54.122;17.974;2023-03-23T17:43:05;11.07;;;5.90;;
19384;SDS011;9828;54.122;17.974;2023-03-23T17:48:26;11.40;;;6.47;;
19384;SDS011;9828;54.122;17.974;2023-03-23T17:53:47;7.73;;;4.13;;
19384;SDS011;9828;54.122;17.974;2023-03-23T17:59:08;4.90;;;3.20;;
19384;SDS011;9828;54.122;17.974;2023-03-23T18:04:30;4.03;;;2.00;;
19384;SDS011;9828;54.122;17.974;2023-03-23T18:09:51;4.60;;;2.10;;
19384;SDS011;9828;54.122;17.974;2023-03-23T18:15:12;4.13;;;2.37;;
19384;SDS011;9828;54.122;17.974;2023-03-23T18:20:33;4.70;;;1.93;;
19384;SDS011;9828;54.122;17.974;2023-03-23T18:25:54;5.03;;;2.60;;
19384;SDS011;9828;54.122;17.974;2023-03-23T18:31:15;4.77;;;1.77;;
19384;SDS011;9828;54.122;17.974;2023-03-23T18:36:37;10.40;;;4.70;;
19384;SDS011;9828;54.122;17.974;2023-03-23T18:41:59;9.00;;;4.30;;
19384;SDS011;9828;54.122;17.974;2023-03-23T18:47:20;13.23;;;6.43;;
19384;SDS011;9828;54.122;17.974;2023-03-23T18:52:42;15.27;;;6.50;;
19384;SDS011;9828;54.122;17.974;2023-03-23T18:58:03;11.73;;;5.90;;
19384;SDS011;9828;54.122;17.974;2023-03-23T19:03:24;24.10;;;12.10;;
19384;SDS011;9828;54.122;17.974;2023-03-23T19:08:46;16.80;;;8.17;;
19384;SDS011;9828;54.122;17.974;2023-03-23T19:14:08;11.00;;;5.27;;
19384;SDS011;9828;54.122;17.974;2023-03-23T19:19:29;6.40;;;3.43;;
19384;SDS011;9828;54.122;17.974;2023-03-23T19:24:51;6.17;;;2.83;;
19384;SDS011;9828;54.122;17.974;2023-03-23T19:30:12;7.03;;;2.30;;
19384;SDS011;9828;54.122;17.974;2023-03-23T19:35:33;6.43;;;3.07;;
19384;SDS011;9828;54.122;17.974;2023-03-23T19:40:55;5.83;;;2.80;;
19384;SDS011;9828;54.122;17.974;2023-03-23T19:46:17;10.20;;;4.80;;
19384;SDS011;9828;54.122;17.974;2023-03-23T19:51:38;5.23;;;2.80;;
19384;SDS011;9828;54.122;17.974;2023-03-23T19:56:59;10.70;;;4.40;;
19384;SDS011;9828;54.122;17.974;2023-03-23T20:02:20;19.17;;;7.77;;
19384;SDS011;9828;54.122;17.974;2023-03-23T20:07:41;33.90;;;14.37;;
19384;SDS011;9828;54.122;17.974;2023-03-23T20:13:04;36.23;;;16.50;;
19384;SDS011;9828;54.122;17.974;2023-03-23T20:18:27;33.87;;;16.90;;
19384;SDS011;9828;54.122;17.974;2023-03-23T20:23:52;52.73;;;21.00;;
19384;SDS011;9828;54.122;17.974;2023-03-23T20:29:16;42.23;;;18.67;;
19384;SDS011;9828;54.122;17.974;2023-03-23T20:34:37;30.30;;;15.17;;
19384;SDS011;9828;54.122;17.974;2023-03-23T20:39:59;22.10;;;7.83;;
19384;SDS011;9828;54.122;17.974;2023-03-23T20:45:27;42.70;;;22.53;;
19384;SDS011;9828;54.122;17.974;2023-03-23T20:50:48;33.87;;;14.10;;
19384;SDS011;9828;54.122;17.974;2023-03-23T20:56:09;23.33;;;8.70;;
19384;SDS011;9828;54.122;17.974;2023-03-23T21:01:31;26.30;;;11.20;;
19384;SDS011;9828;54.122;17.974;2023-03-23T21:06:53;38.47;;;18.83;;
19384;SDS011;9828;54.122;17.974;2023-03-23T21:12:15;16.13;;;8.53;;
19384;SDS011;9828;54.122;17.974;2023-03-23T21:17:36;15.33;;;6.53;;
19384;SDS011;9828;54.122;17.974;2023-03-23T21:22:57;19.07;;;8.27;;
19384;SDS011;9828;54.122;17.974;2023-03-23T21:28:19;15.37;;;7.40;;
19384;SDS011;9828;54.122;17.974;2023-03-23T21:33:40;22.50;;;10.60;;
19384;SDS011;9828;54.122;17.974;2023-03-23T21:39:02;20.57;;;11.73;;
19384;SDS011;9828;54.122;17.974;2023-03-23T21:44:25;14.03;;;8.47;;
19384;SDS011;9828;54.122;17.974;2023-03-23T21:49:46;15.47;;;7.90;;
19384;SDS011;9828;54.122;17.974;2023-03-23T21:55:10;10.43;;;5.80;;
19384;SDS011;9828;54.122;17.974;2023-03-23T22:00:32;8.70;;;4.37;;
19384;SDS011;9828;54.122;17.974;2023-03-23T22:05:53;16.60;;;6.30;;
19384;SDS011;9828;54.122;17.974;2023-03-23T22:11:18;30.20;;;10.00;;
19384;SDS011;9828;54.122;17.974;2023-03-23T22:16:44;23.93;;;11.53;;
19384;SDS011;9828;54.122;17.974;2023-03-23T22:22:05;21.60;;;7.90;;
19384;SDS011;9828;54.122;17.974;2023-03-23T22:27:26;21.97;;;9.73;;
19384;SDS011;9828;54.122;17.974;2023-03-23T22:32:47;26.13;;;10.67;;
19384;SDS011;9828;54.122;17.974;2023-03-23T22:38:08;22.33;;;8.03;;
19384;SDS011;9828;54.122;17.974;2023-03-23T22:43:29;10.53;;;5.87;;
19384;SDS011;9828;54.122;17.974;2023-03-23T22:48:50;8.17;;;4.27;;
19384;SDS011;9828;54.122;17.974;2023-03-23T22:54:14;7.73;;;4.20;;
19384;SDS011;9828;54.122;17.974;2023-03-23T22:59:35;8.03;;;4.23;;
19384;SDS011;9828;54.122;17.974;2023-03-23T23:04:56;10.03;;;5.00;;
19384;SDS011;9828;54.122;17.974;2023-03-23T23:10:17;15.63;;;7.27;;
19384;SDS011;9828;54.122;17.974;2023-03-23T23:15:39;19.90;;;8.97;;
19384;SDS011;9828;54.122;17.974;2023-03-23T23:21:05;14.17;;;5.90;;
19384;SDS011;9828;54.122;17.974;2023-03-23T23:26:30;8.00;;;5.10;;
19384;SDS011;9828;54.122;17.974;2023-03-23T23:31:51;9.80;;;4.57;;
19384;SDS011;9828;54.122;17.974;2023-03-23T23:37:12;6.47;;;4.70;;
19384;SDS011;9828;54.122;17.974;2023-03-23T23:42:34;5.77;;;3.67;;
19384;SDS011;9828;54.122;17.974;2023-03-23T23:47:56;6.43;;;4.30;;
19384;SDS011;9828;54.122;17.974;2023-03-23T23:53:17;7.33;;;3.57;;
19384;SDS011;9828;54.122;17.974;2023-03-23T23:58:42;7.23;;;4.30;;
